Time;durP1;ratioP1;P1;durP2;ratioP2;P2;SDS_P1;SDS_P2;PMS_P1;PMS_P2;Temp;Humidity;BMP_temperature;BMP_pressure;BME280_temperature;BME280_humidity;BME280_pressure;Samples;Min_cycle;Max_cycle;Signal;HPM_P1;HPM_P2
2021/10/07 00:00:25;;;;;;;8.77;7.97;;;;;;;;;;5007416;28;20224;-73
2021/10/07 00:02:50;;;;;;;8.93;8.13;;;;;;;;;;5011434;28;20200;-73
2021/10/07 00:05:15;;;;;;;9.20;8.40;;;;;;;;;;5008736;28;20979;-73
2021/10/07 00:07:41;;;;;;;8.27;7.57;;;;;;;;;;4991273;28;22216;-73
2021/10/07 00:10:06;;;;;;;9.70;8.83;;;;;;;;;;4998157;28;21220;-73
2021/10/07 00:12:32;;;;;;;8.33;7.63;;;;;;;;;;4996185;28;20219;-73
2021/10/07 00:14:57;;;;;;;10.37;9.47;;;;;;;;;;5005732;28;20705;-73
2021/10/07 00:17:25;;;;;;;10.13;9.23;;;;;;;;;;5002627;28;20231;-72
2021/10/07 00:19:50;;;;;;;10.33;9.33;;;;;;;;;;5005004;28;20180;-73
2021/10/07 00:22:15;;;;;;;9.63;8.73;;;;;;;;;;5007314;28;20460;-73
2021/10/07 00:24:41;;;;;;;9.77;8.87;;;;;;;;;;5006304;28;20197;-73
2021/10/07 00:27:07;;;;;;;9.07;8.27;;;;;;;;;;5007069;28;20243;-73
2021/10/07 00:32:21;;;;;;;9.90;9.00;;;;;;;;;;5003954;28;20531;-74
2021/10/07 00:39:55;;;;;;;9.60;8.70;;;;;;;;;;5009748;28;20183;-74
2021/10/07 00:42:21;;;;;;;8.70;7.90;;;;;;;;;;5010791;28;20856;-74
2021/10/07 00:44:47;;;;;;;9.70;8.80;;;;;;;;;;5003971;28;20264;-74
2021/10/07 00:47:13;;;;;;;9.53;8.63;;;;;;;;;;5002153;28;20185;-74
2021/10/07 00:49:39;;;;;;;8.77;8.03;;;;;;;;;;5008466;28;20622;-74
2021/10/07 00:52:05;;;;;;;9.10;8.30;;;;;;;;;;5008418;28;20526;-74
2021/10/07 00:54:30;;;;;;;8.43;7.70;;;;;;;;;;5005771;28;20189;-74
2021/10/07 00:56:56;;;;;;;7.93;7.23;;;;;;;;;;5006636;28;20982;-73
2021/10/07 00:59:22;;;;;;;7.00;6.40;;;;;;;;;;5003709;28;20184;-74
2021/10/07 01:01:47;;;;;;;6.73;6.13;;;;;;;;;;5005463;28;20724;-74
2021/10/07 01:04:13;;;;;;;6.80;6.20;;;;;;;;;;5006302;28;20204;-74
2021/10/07 01:06:40;;;;;;;7.50;6.90;;;;;;;;;;5006931;28;20275;-74
2021/10/07 01:09:05;;;;;;;7.60;6.97;;;;;;;;;;5007778;28;20972;-74
2021/10/07 01:11:31;;;;;;;6.53;5.93;;;;;;;;;;5007446;28;20442;-74
2021/10/07 01:13:56;;;;;;;6.30;5.80;;;;;;;;;;5007130;28;20749;-74
2021/10/07 01:16:22;;;;;;;6.70;6.10;;;;;;;;;;5008481;28;20193;-74
2021/10/07 01:18:47;;;;;;;7.90;7.20;;;;;;;;;;5003691;28;20181;-74
2021/10/07 01:21:13;;;;;;;6.50;5.90;;;;;;;;;;5006956;28;20200;-74
2021/10/07 01:23:42;;;;;;;6.13;5.63;;;;;;;;;;5005166;28;20225;-74
2021/10/07 01:26:08;;;;;;;6.43;5.93;;;;;;;;;;5006024;28;20853;-74
2021/10/07 01:28:36;;;;;;;6.47;5.97;;;;;;;;;;5003404;28;20438;-74
2021/10/07 01:31:01;;;;;;;6.20;5.70;;;;;;;;;;5004865;28;20523;-74
2021/10/07 01:33:27;;;;;;;6.93;6.33;;;;;;;;;;5002776;28;20555;-73
2021/10/07 01:35:52;;;;;;;6.60;6.07;;;;;;;;;;5007374;28;20211;-74
2021/10/07 01:38:17;;;;;;;6.30;5.80;;;;;;;;;;5004620;28;20177;-74
2021/10/07 01:40:42;;;;;;;5.80;5.37;;;;;;;;;;5010545;28;20196;-74
2021/10/07 01:43:08;;;;;;;6.03;5.57;;;;;;;;;;5007258;28;20193;-74
2021/10/07 01:45:33;;;;;;;5.47;5.00;;;;;;;;;;4999188;28;20181;-74
2021/10/07 01:47:58;;;;;;;6.00;5.50;;;;;;;;;;5003583;28;20264;-74
2021/10/07 01:50:23;;;;;;;5.43;5.03;;;;;;;;;;5002639;28;20230;-74
2021/10/07 01:52:49;;;;;;;5.50;5.10;;;;;;;;;;5006968;28;20197;-74
2021/10/07 01:55:14;;;;;;;5.63;5.23;;;;;;;;;;5006010;28;20571;-74
2021/10/07 01:57:39;;;;;;;5.67;5.23;;;;;;;;;;5004019;28;20311;-74
2021/10/07 02:00:06;;;;;;;5.70;5.20;;;;;;;;;;5003922;28;20208;-74
2021/10/07 02:02:31;;;;;;;5.57;5.17;;;;;;;;;;5005722;28;20292;-74
2021/10/07 02:04:56;;;;;;;5.07;4.57;;;;;;;;;;5004560;28;20535;-74
2021/10/07 02:07:23;;;;;;;5.20;4.80;;;;;;;;;;5005223;28;20658;-73
2021/10/07 02:09:48;;;;;;;5.30;4.90;;;;;;;;;;5005491;28;20184;-74
2021/10/07 02:12:13;;;;;;;4.77;4.40;;;;;;;;;;5005041;28;20992;-74
2021/10/07 02:14:38;;;;;;;3.87;3.67;;;;;;;;;;5004798;28;20181;-74
2021/10/07 02:17:04;;;;;;;3.60;3.40;;;;;;;;;;5004918;28;20204;-74
2021/10/07 02:19:29;;;;;;;3.60;3.40;;;;;;;;;;5008277;28;20343;-74
2021/10/07 02:21:54;;;;;;;4.10;3.33;;;;;;;;;;5005813;28;20646;-74
2021/10/07 02:24:19;;;;;;;3.00;2.80;;;;;;;;;;5006257;28;20201;-74
2021/10/07 02:26:44;;;;;;;3.00;2.80;;;;;;;;;;5005778;28;20204;-74
2021/10/07 02:29:10;;;;;;;2.80;2.60;;;;;;;;;;5006539;28;20180;-74
2021/10/07 02:31:35;;;;;;;2.57;2.37;;;;;;;;;;5005524;28;20592;-74
2021/10/07 02:34:03;;;;;;;2.03;1.90;;;;;;;;;;5004372;28;20204;-74
2021/10/07 02:36:28;;;;;;;1.93;1.83;;;;;;;;;;5005489;28;20213;-74
2021/10/07 02:38:53;;;;;;;2.13;1.97;;;;;;;;;;5005492;28;20774;-74
2021/10/07 02:41:18;;;;;;;2.07;1.97;;;;;;;;;;5006048;28;20180;-74
2021/10/07 02:43:44;;;;;;;2.80;2.40;;;;;;;;;;5005509;28;20848;-74
2021/10/07 02:46:10;;;;;;;2.23;2.13;;;;;;;;;;5004341;28;20275;-74
2021/10/07 02:48:35;;;;;;;2.50;2.40;;;;;;;;;;5007887;28;20675;-73
2021/10/07 02:51:01;;;;;;;2.10;1.90;;;;;;;;;;5006574;28;20438;-74
2021/10/07 02:53:32;;;;;;;2.10;2.00;;;;;;;;;;5004437;28;20689;-74
2021/10/07 02:55:58;;;;;;;2.27;2.10;;;;;;;;;;5008031;28;20568;-74
2021/10/07 02:58:24;;;;;;;6.73;1.30;;;;;;;;;;5006033;28;20435;-74
2021/10/07 03:00:49;;;;;;;1.80;1.70;;;;;;;;;;5002356;28;20189;-74
2021/10/07 03:03:14;;;;;;;1.30;1.30;;;;;;;;;;5006528;28;20205;-74
2021/10/07 03:05:42;;;;;;;1.47;1.37;;;;;;;;;;5007163;28;20185;-74
2021/10/07 03:08:07;;;;;;;1.90;1.80;;;;;;;;;;5005026;28;20185;-73
2021/10/07 03:10:32;;;;;;;2.13;1.87;;;;;;;;;;5011181;28;20443;-74
2021/10/07 03:12:58;;;;;;;2.63;2.43;;;;;;;;;;5010630;28;20263;-74
2021/10/07 03:15:23;;;;;;;2.10;1.90;;;;;;;;;;5006197;28;20201;-74
2021/10/07 03:17:49;;;;;;;2.27;2.17;;;;;;;;;;5010587;28;20177;-74
2021/10/07 03:20:14;;;;;;;2.30;2.20;;;;;;;;;;5005970;28;20737;-74
2021/10/07 03:22:40;;;;;;;2.30;2.20;;;;;;;;;;5006304;28;20307;-73
2021/10/07 03:25:06;;;;;;;3.10;2.90;;;;;;;;;;5008775;28;20196;-74
2021/10/07 03:27:31;;;;;;;3.20;2.93;;;;;;;;;;5009814;28;20438;-74
2021/10/07 03:29:56;;;;;;;4.63;2.17;;;;;;;;;;5008699;28;20620;-74
2021/10/07 03:32:22;;;;;;;3.17;2.87;;;;;;;;;;5001087;28;20210;-74
2021/10/07 03:34:47;;;;;;;3.20;3.00;;;;;;;;;;5009788;28;20185;-74
2021/10/07 03:37:12;;;;;;;3.63;3.33;;;;;;;;;;5009655;28;20243;-74
2021/10/07 03:39:37;;;;;;;3.43;3.13;;;;;;;;;;5006688;28;20191;-74
2021/10/07 03:42:03;;;;;;;3.00;2.70;;;;;;;;;;5007625;28;20173;-74
2021/10/07 03:44:28;;;;;;;3.37;3.17;;;;;;;;;;5008784;28;20188;-74
2021/10/07 03:46:53;;;;;;;3.13;2.93;;;;;;;;;;5003493;28;20189;-74
2021/10/07 03:49:18;;;;;;;3.20;2.90;;;;;;;;;;5009460;28;20192;-74
2021/10/07 03:51:44;;;;;;;2.97;2.77;;;;;;;;;;5009591;28;20193;-74
2021/10/07 03:54:09;;;;;;;2.80;2.60;;;;;;;;;;5007487;28;20283;-74
2021/10/07 03:56:34;;;;;;;2.73;2.53;;;;;;;;;;5008283;28;20200;-74
2021/10/07 03:59:00;;;;;;;3.20;2.90;;;;;;;;;;5006387;28;20170;-74
2021/10/07 04:01:27;;;;;;;3.07;2.87;;;;;;;;;;5007070;28;20211;-74
2021/10/07 04:03:52;;;;;;;3.30;3.00;;;;;;;;;;5009209;28;20239;-74
2021/10/07 04:06:18;;;;;;;3.10;2.90;;;;;;;;;;5010293;28;20431;-74
2021/10/07 04:08:43;;;;;;;2.93;2.73;;;;;;;;;;5006650;28;20188;-74
2021/10/07 04:11:08;;;;;;;3.03;2.83;;;;;;;;;;5010421;28;20211;-74
2021/10/07 04:13:33;;;;;;;3.13;2.93;;;;;;;;;;5011107;28;20193;-74
2021/10/07 04:15:58;;;;;;;3.43;3.17;;;;;;;;;;5005919;28;20205;-74
2021/10/07 04:18:24;;;;;;;2.80;2.60;;;;;;;;;;5009247;28;20176;-74
2021/10/07 04:20:49;;;;;;;2.90;2.70;;;;;;;;;;5006945;28;20186;-74
2021/10/07 04:23:15;;;;;;;3.20;3.00;;;;;;;;;;5004374;28;20661;-74
2021/10/07 04:25:40;;;;;;;3.13;2.93;;;;;;;;;;5006884;28;20232;-74
2021/10/07 04:28:06;;;;;;;3.20;2.90;;;;;;;;;;5009397;28;20275;-74
2021/10/07 04:30:35;;;;;;;3.50;2.70;;;;;;;;;;5008408;28;20945;-74
2021/10/07 04:33:04;;;;;;;3.73;3.43;;;;;;;;;;5004451;28;20208;-74
2021/10/07 04:35:29;;;;;;;4.13;3.73;;;;;;;;;;5005040;28;20431;-74
2021/10/07 04:37:55;;;;;;;3.80;3.50;;;;;;;;;;5005580;28;20483;-73
2021/10/07 04:40:20;;;;;;;3.93;3.60;;;;;;;;;;5009888;28;20180;-74
2021/10/07 04:42:45;;;;;;;4.80;4.40;;;;;;;;;;5008511;28;20255;-74
2021/10/07 04:45:10;;;;;;;3.93;3.57;;;;;;;;;;5002340;28;20410;-74
2021/10/07 04:47:36;;;;;;;4.40;4.00;;;;;;;;;;4991947;28;20200;-73
2021/10/07 04:50:01;;;;;;;4.13;3.73;;;;;;;;;;5003737;28;20199;-74
2021/10/07 04:52:26;;;;;;;4.70;4.20;;;;;;;;;;5006785;28;20205;-74
2021/10/07 04:54:52;;;;;;;4.20;3.83;;;;;;;;;;5004404;28;20185;-73
2021/10/07 04:57:17;;;;;;;3.27;3.03;;;;;;;;;;5002152;28;20204;-73
2021/10/07 04:59:43;;;;;;;3.60;3.03;;;;;;;;;;5009297;28;20247;-73
2021/10/07 05:02:08;;;;;;;4.40;4.00;;;;;;;;;;5010298;28;20177;-73
2021/10/07 05:04:33;;;;;;;3.30;3.10;;;;;;;;;;5011488;28;20169;-73
2021/10/07 05:06:59;;;;;;;4.33;3.93;;;;;;;;;;5007581;28;20185;-74
2021/10/07 05:09:24;;;;;;;3.67;3.37;;;;;;;;;;5004591;28;20187;-74
2021/10/07 05:11:49;;;;;;;2.97;2.77;;;;;;;;;;5003769;28;20181;-74
2021/10/07 05:14:14;;;;;;;4.20;3.10;;;;;;;;;;5004416;28;20287;-74
2021/10/07 05:16:40;;;;;;;3.00;2.80;;;;;;;;;;5000269;28;20290;-74
2021/10/07 05:19:05;;;;;;;3.20;3.00;;;;;;;;;;4998992;28;20181;-74
2021/10/07 05:21:30;;;;;;;3.63;3.27;;;;;;;;;;4995315;28;20177;-73
2021/10/07 05:23:56;;;;;;;3.30;3.00;;;;;;;;;;4994558;28;20196;-74
2021/10/07 05:26:21;;;;;;;4.40;3.53;;;;;;;;;;5005812;28;20796;-73
2021/10/07 05:28:46;;;;;;;3.50;3.20;;;;;;;;;;5001004;28;20432;-74
2021/10/07 05:31:12;;;;;;;4.70;4.20;;;;;;;;;;5003664;28;20178;-73
2021/10/07 05:33:37;;;;;;;4.97;4.27;;;;;;;;;;5004566;28;20230;-73
2021/10/07 05:36:02;;;;;;;5.43;4.73;;;;;;;;;;5002196;28;20201;-73
2021/10/07 05:38:29;;;;;;;5.57;4.60;;;;;;;;;;5008026;28;20256;-74
2021/10/07 05:40:54;;;;;;;4.07;3.67;;;;;;;;;;5003333;28;20181;-73
2021/10/07 05:43:19;;;;;;;5.47;4.83;;;;;;;;;;5003869;28;20458;-73
2021/10/07 05:45:44;;;;;;;5.73;4.33;;;;;;;;;;5007817;28;20263;-74
2021/10/07 05:48:10;;;;;;;4.90;4.00;;;;;;;;;;5005271;28;20231;-73
2021/10/07 05:50:35;;;;;;;5.87;4.67;;;;;;;;;;5004770;28;20264;-73
2021/10/07 05:53:00;;;;;;;5.10;4.60;;;;;;;;;;5008482;28;20227;-73
2021/10/07 05:55:25;;;;;;;4.43;4.03;;;;;;;;;;5009553;28;20189;-73
2021/10/07 05:57:51;;;;;;;4.97;4.37;;;;;;;;;;5005060;28;20292;-73
2021/10/07 06:00:16;;;;;;;6.07;5.17;;;;;;;;;;5010865;28;20875;-73
2021/10/07 06:02:41;;;;;;;6.67;5.40;;;;;;;;;;5005677;28;20638;-73
2021/10/07 06:05:08;;;;;;;6.60;5.53;;;;;;;;;;5009817;28;20185;-74
2021/10/07 06:07:33;;;;;;;6.17;5.17;;;;;;;;;;4999296;28;20235;-74
2021/10/07 06:09:59;;;;;;;4.37;3.97;;;;;;;;;;5006666;28;20855;-74
2021/10/07 06:12:24;;;;;;;8.07;5.80;;;;;;;;;;5015510;28;20215;-74
2021/10/07 06:14:50;;;;;;;8.63;5.90;;;;;;;;;;5020333;28;20188;-73
2021/10/07 06:17:15;;;;;;;5.63;5.03;;;;;;;;;;5007065;28;20232;-73
2021/10/07 06:19:43;;;;;;;5.10;4.30;;;;;;;;;;5010795;28;20231;-74
2021/10/07 06:22:09;;;;;;;5.33;4.70;;;;;;;;;;5004001;28;20628;-74
2021/10/07 06:24:34;;;;;;;6.97;5.90;;;;;;;;;;5004945;28;20435;-74
2021/10/07 06:26:59;;;;;;;8.37;6.83;;;;;;;;;;5005813;28;20651;-74
2021/10/07 06:29:25;;;;;;;7.70;6.07;;;;;;;;;;5004220;28;20196;-74
2021/10/07 06:31:50;;;;;;;9.90;6.27;;;;;;;;;;5004441;28;20552;-73
2021/10/07 06:34:15;;;;;;;8.10;6.47;;;;;;;;;;5007975;28;20177;-75
2021/10/07 06:36:41;;;;;;;7.40;6.00;;;;;;;;;;5002961;28;20208;-74
2021/10/07 06:39:06;;;;;;;8.17;6.10;;;;;;;;;;5000738;28;20177;-75
2021/10/07 06:41:31;;;;;;;6.30;5.47;;;;;;;;;;5007374;28;20546;-74
2021/10/07 06:43:57;;;;;;;6.90;5.70;;;;;;;;;;5008313;28;20239;-74
2021/10/07 06:46:24;;;;;;;6.57;5.30;;;;;;;;;;5002060;28;20254;-74
2021/10/07 06:48:50;;;;;;;8.33;5.70;;;;;;;;;;5005753;28;20177;-74
2021/10/07 06:51:15;;;;;;;6.83;5.63;;;;;;;;;;5008602;28;20807;-74
2021/10/07 06:53:42;;;;;;;11.53;6.90;;;;;;;;;;5006202;28;20192;-73
2021/10/07 06:56:07;;;;;;;7.83;6.00;;;;;;;;;;5011139;28;20192;-74
2021/10/07 06:58:33;;;;;;;8.57;7.30;;;;;;;;;;5005920;28;20795;-74
2021/10/07 07:00:58;;;;;;;9.57;7.03;;;;;;;;;;5012690;28;20184;-73
2021/10/07 07:03:23;;;;;;;8.30;6.47;;;;;;;;;;5012803;28;20653;-74
2021/10/07 07:05:49;;;;;;;8.67;6.93;;;;;;;;;;5008022;28;20181;-74
2021/10/07 07:08:14;;;;;;;8.23;6.57;;;;;;;;;;5012761;28;20204;-74
2021/10/07 07:10:39;;;;;;;9.50;7.50;;;;;;;;;;5010493;28;20192;-74
2021/10/07 07:13:05;;;;;;;10.37;7.73;;;;;;;;;;5006734;28;20215;-74
2021/10/07 07:15:31;;;;;;;8.87;7.40;;;;;;;;;;5002606;28;20170;-74
2021/10/07 07:17:56;;;;;;;10.87;7.47;;;;;;;;;;5000813;28;20440;-74
2021/10/07 07:20:21;;;;;;;10.00;8.33;;;;;;;;;;5006366;28;20223;-74
2021/10/07 07:22:47;;;;;;;12.30;9.07;;;;;;;;;;5006158;28;20231;-73
2021/10/07 07:25:12;;;;;;;10.40;8.07;;;;;;;;;;5003797;28;20219;-74
2021/10/07 07:27:37;;;;;;;9.27;7.57;;;;;;;;;;5000900;28;20185;-74
2021/10/07 07:30:04;;;;;;;10.70;8.80;;;;;;;;;;5003862;28;20209;-75
2021/10/07 07:32:29;;;;;;;9.03;7.77;;;;;;;;;;5005874;28;20213;-74
2021/10/07 07:34:54;;;;;;;10.40;8.43;;;;;;;;;;4999196;28;20439;-74
2021/10/07 07:37:19;;;;;;;10.50;8.83;;;;;;;;;;5000234;28;20204;-75
2021/10/07 07:39:45;;;;;;;12.33;9.17;;;;;;;;;;5009033;28;20181;-74
2021/10/07 07:42:10;;;;;;;10.43;8.77;;;;;;;;;;5007147;28;20232;-74
2021/10/07 07:44:36;;;;;;;13.20;10.33;;;;;;;;;;5007863;28;20671;-75
2021/10/07 07:47:01;;;;;;;11.00;9.20;;;;;;;;;;5001570;28;20197;-74
2021/10/07 07:49:26;;;;;;;12.33;9.80;;;;;;;;;;5012163;28;20990;-75
2021/10/07 07:51:52;;;;;;;12.07;9.10;;;;;;;;;;5007481;28;20184;-75
2021/10/07 07:54:17;;;;;;;11.57;9.57;;;;;;;;;;5001721;28;20188;-75
2021/10/07 07:56:42;;;;;;;15.23;10.90;;;;;;;;;;5007229;28;20204;-74
2021/10/07 07:59:09;;;;;;;15.73;10.70;;;;;;;;;;5010861;28;20224;-73
2021/10/07 08:01:37;;;;;;;16.80;12.10;;;;;;;;;;5011428;28;20219;-73
2021/10/07 08:04:03;;;;;;;15.87;11.80;;;;;;;;;;4995353;28;21017;-73
2021/10/07 08:06:28;;;;;;;18.53;14.17;;;;;;;;;;5004226;28;20462;-74
2021/10/07 08:08:54;;;;;;;19.40;13.60;;;;;;;;;;5003118;28;20455;-73
2021/10/07 08:11:19;;;;;;;19.60;14.43;;;;;;;;;;5003614;28;20204;-73
2021/10/07 08:13:44;;;;;;;18.90;14.03;;;;;;;;;;5000218;28;20547;-74
2021/10/07 08:16:09;;;;;;;18.40;14.10;;;;;;;;;;5008118;28;20207;-74
2021/10/07 08:18:35;;;;;;;20.30;14.87;;;;;;;;;;4999898;28;20173;-73
2021/10/07 08:21:00;;;;;;;24.77;16.40;;;;;;;;;;5002582;28;20263;-74
2021/10/07 08:23:29;;;;;;;24.40;17.30;;;;;;;;;;4999627;28;20578;-74
2021/10/07 08:25:55;;;;;;;26.03;17.10;;;;;;;;;;5000835;28;20232;-74
2021/10/07 08:28:21;;;;;;;25.53;16.30;;;;;;;;;;4997175;28;21324;-74
2021/10/07 08:30:47;;;;;;;30.27;17.60;;;;;;;;;;5007327;28;20443;-73
2021/10/07 08:33:12;;;;;;;25.77;17.13;;;;;;;;;;5005378;28;20459;-74
2021/10/07 08:35:37;;;;;;;25.70;17.17;;;;;;;;;;5007233;28;20188;-74
2021/10/07 08:38:03;;;;;;;25.67;16.27;;;;;;;;;;5007436;28;20173;-74
2021/10/07 08:40:28;;;;;;;22.93;16.00;;;;;;;;;;5009066;28;20292;-73
2021/10/07 08:42:53;;;;;;;23.87;16.17;;;;;;;;;;5001390;28;20204;-74
2021/10/07 08:45:18;;;;;;;23.67;14.90;;;;;;;;;;5003437;28;20177;-73
2021/10/07 08:47:45;;;;;;;22.37;15.47;;;;;;;;;;5004057;28;20193;-73
2021/10/07 08:50:11;;;;;;;23.27;16.40;;;;;;;;;;5009920;28;20191;-73
2021/10/07 08:52:36;;;;;;;23.40;15.93;;;;;;;;;;5011324;28;20451;-73
2021/10/07 08:55:02;;;;;;;23.10;16.07;;;;;;;;;;5005831;28;20451;-73
2021/10/07 08:57:27;;;;;;;21.50;15.40;;;;;;;;;;5007775;28;20201;-73
2021/10/07 08:59:52;;;;;;;24.70;15.40;;;;;;;;;;5005609;28;20181;-73
2021/10/07 09:02:28;;;;;;;22.07;15.90;;;;;;;;;;5004160;28;20224;-73
2021/10/07 09:04:54;;;;;;;20.60;14.50;;;;;;;;;;4997118;28;20185;-74
2021/10/07 09:07:20;;;;;;;19.30;14.87;;;;;;;;;;5002563;28;20431;-73
2021/10/07 09:09:46;;;;;;;22.50;15.67;;;;;;;;;;5003313;28;20193;-73
2021/10/07 09:12:20;;;;;;;21.17;14.90;;;;;;;;;;5003900;28;20460;-73
2021/10/07 09:14:46;;;;;;;23.57;16.80;;;;;;;;;;4999811;28;20801;-73
2021/10/07 09:17:12;;;;;;;21.87;16.43;;;;;;;;;;5008540;28;20909;-73
2021/10/07 09:19:40;;;;;;;19.63;14.30;;;;;;;;;;5011033;28;20455;-73
2021/10/07 09:22:19;;;;;;;22.10;15.47;;;;;;;;;;5005510;28;20478;-74
2021/10/07 09:24:46;;;;;;;21.03;14.67;;;;;;;;;;5005086;28;20513;-73
2021/10/07 09:27:13;;;;;;;18.10;13.10;;;;;;;;;;5007999;28;20431;-74
2021/10/07 09:29:45;;;;;;;20.03;14.80;;;;;;;;;;5005914;28;20848;-74
2021/10/07 09:32:12;;;;;;;19.43;15.07;;;;;;;;;;4999412;28;20460;-73
2021/10/07 09:34:44;;;;;;;21.20;14.43;;;;;;;;;;5004404;28;20959;-73
2021/10/07 09:37:15;;;;;;;20.37;14.50;;;;;;;;;;4995146;28;20487;-74
2021/10/07 09:39:45;;;;;;;22.77;15.43;;;;;;;;;;5002622;28;20943;-74
2021/10/07 09:42:15;;;;;;;20.40;15.50;;;;;;;;;;5000033;28;20455;-74
2021/10/07 09:44:57;;;;;;;22.30;16.07;;;;;;;;;;4998041;28;20432;-73
2021/10/07 09:47:27;;;;;;;24.20;14.90;;;;;;;;;;5001104;28;20912;-74
2021/10/07 09:50:05;;;;;;;18.30;13.90;;;;;;;;;;4999106;28;20781;-73
2021/10/07 09:52:34;;;;;;;21.00;15.73;;;;;;;;;;4996961;28;20458;-74
2021/10/07 09:55:06;;;;;;;19.50;14.87;;;;;;;;;;4994508;28;20436;-73
2021/10/07 09:57:31;;;;;;;21.73;15.87;;;;;;;;;;4995308;28;20454;-73
2021/10/07 09:59:57;;;;;;;21.80;15.93;;;;;;;;;;4991130;28;20428;-73
2021/10/07 10:02:22;;;;;;;19.53;15.30;;;;;;;;;;4989748;28;20635;-73
2021/10/07 10:04:47;;;;;;;20.77;15.57;;;;;;;;;;4996413;28;20181;-73
2021/10/07 10:07:13;;;;;;;22.03;16.60;;;;;;;;;;5005665;28;20176;-72
2021/10/07 10:09:38;;;;;;;21.63;16.80;;;;;;;;;;5011043;28;20211;-72
2021/10/07 10:12:03;;;;;;;23.40;16.63;;;;;;;;;;5010697;28;20216;-72
2021/10/07 10:14:29;;;;;;;20.67;15.53;;;;;;;;;;5008251;28;20181;-73
2021/10/07 10:16:54;;;;;;;26.67;16.83;;;;;;;;;;5003423;28;20241;-73
2021/10/07 10:19:20;;;;;;;20.10;16.23;;;;;;;;;;5004475;28;20664;-73
2021/10/07 10:21:45;;;;;;;20.80;14.40;;;;;;;;;;5005333;28;20176;-73
2021/10/07 10:24:12;;;;;;;22.17;15.90;;;;;;;;;;5004589;28;20196;-73
2021/10/07 10:26:38;;;;;;;26.20;15.70;;;;;;;;;;5007556;28;20590;-73
2021/10/07 10:29:21;;;;;;;23.47;16.60;;;;;;;;;;5008395;28;20520;-73
2021/10/07 10:31:49;;;;;;;22.37;16.73;;;;;;;;;;5006095;28;20518;-73
2021/10/07 10:34:16;;;;;;;23.07;16.53;;;;;;;;;;5010188;28;21006;-73
2021/10/07 10:36:44;;;;;;;24.00;18.67;;;;;;;;;;5006652;28;20921;-73
2021/10/07 10:39:29;;;;;;;24.50;17.37;;;;;;;;;;5003624;28;20467;-73
2021/10/07 10:41:54;;;;;;;24.63;18.40;;;;;;;;;;4999640;28;20432;-72
2021/10/07 10:44:30;;;;;;;26.50;19.13;;;;;;;;;;5002465;28;20450;-73
2021/10/07 10:46:58;;;;;;;25.70;18.93;;;;;;;;;;5004107;28;20641;-73
2021/10/07 10:49:35;;;;;;;25.20;19.23;;;;;;;;;;5007499;28;20974;-73
2021/10/07 10:52:02;;;;;;;26.63;19.87;;;;;;;;;;5000718;28;20788;-73
2021/10/07 10:54:30;;;;;;;29.10;20.60;;;;;;;;;;5008007;28;20506;-73
2021/10/07 10:56:57;;;;;;;29.10;20.50;;;;;;;;;;5012490;28;20828;-73
2021/10/07 10:59:24;;;;;;;24.23;19.67;;;;;;;;;;5004776;28;20435;-73
2021/10/07 11:02:08;;;;;;;29.97;22.40;;;;;;;;;;4999490;28;20443;-73
2021/10/07 11:04:40;;;;;;;31.20;24.07;;;;;;;;;;5003910;28;20534;-73
2021/10/07 11:07:20;;;;;;;32.83;23.43;;;;;;;;;;5002891;28;20531;-73
2021/10/07 11:09:59;;;;;;;27.93;21.03;;;;;;;;;;5004228;28;20474;-73
2021/10/07 11:12:25;;;;;;;32.00;22.67;;;;;;;;;;4994598;28;20467;-72
2021/10/07 11:14:50;;;;;;;30.10;21.90;;;;;;;;;;4997830;28;20436;-72
2021/10/07 11:17:18;;;;;;;26.93;19.80;;;;;;;;;;4999092;28;20220;-73
2021/10/07 11:19:43;;;;;;;26.07;20.47;;;;;;;;;;4992903;28;20174;-73
2021/10/07 11:22:09;;;;;;;27.73;20.70;;;;;;;;;;4997454;28;20436;-73
2021/10/07 11:24:34;;;;;;;26.30;19.40;;;;;;;;;;5004558;28;20340;-72
2021/10/07 11:27:00;;;;;;;24.57;19.30;;;;;;;;;;5012247;28;20199;-74
2021/10/07 11:29:25;;;;;;;25.13;19.00;;;;;;;;;;5005985;28;20207;-73
2021/10/07 11:31:50;;;;;;;26.30;19.80;;;;;;;;;;5001413;28;20231;-73
2021/10/07 11:34:16;;;;;;;24.20;18.63;;;;;;;;;;5000485;28;20267;-73
2021/10/07 11:36:41;;;;;;;26.83;19.63;;;;;;;;;;5008993;28;20197;-72
2021/10/07 11:39:06;;;;;;;24.13;18.87;;;;;;;;;;5012732;28;20668;-72
2021/10/07 11:41:33;;;;;;;24.10;19.00;;;;;;;;;;5003744;28;20183;-72
2021/10/07 11:44:00;;;;;;;22.17;17.33;;;;;;;;;;5001165;28;21496;-73
2021/10/07 11:46:26;;;;;;;20.40;16.53;;;;;;;;;;5010540;28;20952;-73
2021/10/07 11:48:53;;;;;;;22.20;17.83;;;;;;;;;;5000814;28;20531;-72
2021/10/07 11:51:19;;;;;;;24.73;19.33;;;;;;;;;;5006166;28;20189;-73
2021/10/07 11:53:45;;;;;;;17.97;15.73;;;;;;;;;;5003388;28;20455;-73
2021/10/07 11:56:15;;;;;;;20.47;17.13;;;;;;;;;;5010859;28;20463;-72
2021/10/07 11:58:45;;;;;;;20.90;17.40;;;;;;;;;;5015034;28;20423;-73
2021/10/07 12:01:10;;;;;;;25.50;18.67;;;;;;;;;;5010350;28;20475;-73
2021/10/07 12:03:37;;;;;;;19.93;17.70;;;;;;;;;;5009547;28;20443;-72
2021/10/07 12:06:02;;;;;;;22.03;18.67;;;;;;;;;;5008776;28;20556;-72
2021/10/07 12:08:29;;;;;;;19.90;17.27;;;;;;;;;;5005736;28;20514;-73
2021/10/07 12:10:59;;;;;;;24.60;17.93;;;;;;;;;;5011294;28;20200;-74
2021/10/07 12:13:27;;;;;;;19.53;16.97;;;;;;;;;;5008084;28;20479;-73
2021/10/07 12:15:57;;;;;;;20.47;16.77;;;;;;;;;;4992490;28;21190;-73
2021/10/07 12:18:26;;;;;;;20.70;16.73;;;;;;;;;;5004413;28;20478;-73
2021/10/07 12:20:59;;;;;;;21.90;16.87;;;;;;;;;;5001042;28;20443;-73
2021/10/07 12:23:24;;;;;;;19.10;16.20;;;;;;;;;;4997518;28;20459;-74
2021/10/07 12:25:54;;;;;;;18.37;15.90;;;;;;;;;;4993930;28;20451;-73
2021/10/07 12:28:19;;;;;;;17.93;16.00;;;;;;;;;;4999393;28;20193;-74
2021/10/07 12:30:50;;;;;;;17.13;15.30;;;;;;;;;;5008006;28;21151;-74
2021/10/07 12:33:15;;;;;;;17.57;15.67;;;;;;;;;;5005815;28;20209;-74
2021/10/07 12:35:58;;;;;;;18.70;16.40;;;;;;;;;;5004530;28;20612;-74
2021/10/07 12:38:26;;;;;;;17.47;15.70;;;;;;;;;;5004636;28;20238;-73
2021/10/07 12:40:55;;;;;;;18.63;16.10;;;;;;;;;;5001664;28;20513;-73
2021/10/07 12:43:21;;;;;;;17.90;16.00;;;;;;;;;;5007404;28;20470;-72
2021/10/07 12:46:03;;;;;;;17.80;15.63;;;;;;;;;;5005806;28;20438;-72
2021/10/07 12:48:42;;;;;;;18.10;15.40;;;;;;;;;;4993153;28;20184;-72
2021/10/07 12:51:11;;;;;;;16.83;14.87;;;;;;;;;;5004313;28;20440;-72
2021/10/07 12:53:39;;;;;;;17.27;15.47;;;;;;;;;;5001060;28;20453;-72
2021/10/07 12:56:08;;;;;;;16.60;14.73;;;;;;;;;;5007560;28;20829;-72
2021/10/07 12:58:33;;;;;;;18.83;16.10;;;;;;;;;;5009651;28;20562;-72
2021/10/07 13:01:09;;;;;;;19.13;16.47;;;;;;;;;;5007502;28;20524;-72
2021/10/07 13:03:35;;;;;;;18.43;16.53;;;;;;;;;;4993041;28;20200;-72
2021/10/07 13:06:00;;;;;;;17.63;15.73;;;;;;;;;;5003589;28;20471;-72
2021/10/07 13:08:25;;;;;;;16.97;15.03;;;;;;;;;;5004414;28;20199;-74
2021/10/07 13:10:50;;;;;;;18.47;15.20;;;;;;;;;;5006591;28;20188;-73
2021/10/07 13:13:16;;;;;;;15.60;13.97;;;;;;;;;;5006944;28;20205;-73
2021/10/07 13:15:44;;;;;;;14.93;13.33;;;;;;;;;;5005127;28;20185;-73
2021/10/07 13:18:10;;;;;;;17.47;15.67;;;;;;;;;;4991336;28;20200;-72
2021/10/07 13:20:36;;;;;;;17.00;14.67;;;;;;;;;;4997088;28;20436;-73
2021/10/07 13:23:01;;;;;;;20.53;16.80;;;;;;;;;;4994843;28;20459;-72
2021/10/07 13:25:30;;;;;;;17.73;15.83;;;;;;;;;;5003733;28;20279;-73
2021/10/07 13:27:55;;;;;;;23.33;16.20;;;;;;;;;;5006574;28;20614;-72
2021/10/07 13:30:21;;;;;;;16.73;14.93;;;;;;;;;;5004123;28;20549;-73
2021/10/07 13:32:54;;;;;;;19.37;16.50;;;;;;;;;;4990561;28;20189;-73
2021/10/07 13:35:19;;;;;;;16.53;14.87;;;;;;;;;;5005334;28;20164;-74
2021/10/07 13:37:49;;;;;;;18.50;14.07;;;;;;;;;;5005679;28;20514;-72
2021/10/07 13:40:19;;;;;;;15.40;13.83;;;;;;;;;;4998050;28;21155;-73
2021/10/07 13:42:45;;;;;;;16.67;14.97;;;;;;;;;;5002206;28;21014;-73
2021/10/07 13:45:10;;;;;;;14.03;12.63;;;;;;;;;;4998389;28;20426;-73
2021/10/07 13:47:35;;;;;;;14.77;13.27;;;;;;;;;;5003031;28;20649;-73
2021/10/07 13:50:00;;;;;;;15.00;13.50;;;;;;;;;;4997193;28;20173;-73
2021/10/07 13:52:27;;;;;;;15.97;14.27;;;;;;;;;;5005528;28;20196;-73
2021/10/07 13:54:53;;;;;;;15.77;14.13;;;;;;;;;;5008534;28;20215;-73
2021/10/07 13:57:18;;;;;;;15.50;13.67;;;;;;;;;;5009553;28;20575;-73
2021/10/07 13:59:43;;;;;;;15.37;13.73;;;;;;;;;;5004756;28;20182;-73
2021/10/07 14:02:09;;;;;;;15.70;14.07;;;;;;;;;;5000878;28;20688;-72
2021/10/07 14:04:34;;;;;;;16.43;14.73;;;;;;;;;;4994691;28;20406;-72
2021/10/07 14:06:59;;;;;;;17.37;15.20;;;;;;;;;;4998874;28;20181;-74
2021/10/07 14:09:25;;;;;;;18.00;16.10;;;;;;;;;;5007544;28;20185;-75
2021/10/07 14:11:51;;;;;;;17.13;14.73;;;;;;;;;;4997987;28;20176;-74
2021/10/07 14:14:17;;;;;;;14.77;13.20;;;;;;;;;;5000409;28;20196;-74
2021/10/07 14:16:42;;;;;;;16.10;14.40;;;;;;;;;;4999472;28;20459;-74
2021/10/07 14:19:07;;;;;;;18.03;16.10;;;;;;;;;;5003891;28;20216;-74
2021/10/07 14:21:32;;;;;;;17.37;15.57;;;;;;;;;;4998940;28;20547;-74
2021/10/07 14:23:58;;;;;;;16.53;13.97;;;;;;;;;;4995183;28;20196;-75
2021/10/07 14:26:23;;;;;;;15.80;14.10;;;;;;;;;;5003030;28;20668;-74
2021/10/07 14:28:48;;;;;;;15.03;13.40;;;;;;;;;;4999305;28;20726;-74
2021/10/07 14:31:14;;;;;;;20.10;15.43;;;;;;;;;;5000675;28;20189;-74
2021/10/07 14:33:39;;;;;;;17.20;14.53;;;;;;;;;;5005441;28;20589;-74